Bristol, Tennessee
Current Conditions -  °F | °C
As of 5:55 AM on Monday 20 Oct 2014 (Local Time) from KVJI Reporting Station
Clear Clear  
Wind Chill: 38°   Ceiling: Unl
Heat Index: 41°   Visibility: 10mi
Dew Point: 39°   Wind: 5mph
Humidity: 92%   Direction: 90°E
Pressure: 30.09"   Gusts: NA
Location:  36.59°N, 82.22°W
Report Text: KVJI 200955Z AUTO 09004KT 10SM CLR 05/04 A3009 RMK AO2 T00520040
Loading
Personal Weather Stations






























Interactive Weather Map New forecast layout! Learn more

10-Day Weather Forecast

Advertisements
Track Severe Weather on mobile